Time;durP1;ratioP1;P1;durP2;ratioP2;P2;SDS_P1;SDS_P2;PMS_P1;PMS_P2;Temp;Humidity;BMP_temperature;BMP_pressure;BME280_temperature;BME280_humidity;BME280_pressure;Samples;Min_cycle;Max_cycle;Signal;HPM_P1;HPM_P2
2023/07/14 00:01:24;;;;;;;7.50;3.30;;;;;;;32.19;45.23;99399.77;108143;1254;72998;-69
2023/07/14 00:03:51;;;;;;;6.00;3.90;;;;;;;32.21;45.42;99385.29;108074;1256;61861;-69
2023/07/14 00:06:18;;;;;;;7.70;3.90;;;;;;;32.30;45.32;99377.96;108161;1252;60274;-71
2023/07/14 00:08:45;;;;;;;7.40;4.30;;;;;;;32.33;45.46;99369.68;108077;1254;73609;-70
2023/07/14 00:11:12;;;;;;;8.10;4.50;;;;;;;32.42;45.35;99360.87;108100;1253;70144;-70
2023/07/14 00:13:39;;;;;;;8.00;4.70;;;;;;;32.07;46.06;99352.10;108091;1254;70831;-70
2023/07/14 00:16:32;;;;;;;9.80;5.30;;;;;;;32.30;45.96;99346.59;108098;1252;62134;-71
2023/07/14 00:18:59;;;;;;;10.40;5.60;;;;;;;32.46;45.52;99340.64;108106;1254;60435;-70
2023/07/14 00:21:25;;;;;;;9.30;5.20;;;;;;;32.12;46.25;99337.80;108138;1254;60167;-73
2023/07/14 00:23:59;;;;;;;7.40;4.80;;;;;;;31.91;46.67;99332.95;108141;1254;70064;-70
2023/07/14 00:26:33;;;;;;;9.20;5.90;;;;;;;32.10;46.44;99329.79;109348;1253;73027;-69
2023/07/14 00:29:05;;;;;;;9.60;5.80;;;;;;;32.29;46.11;99329.13;108227;1254;62290;-69
2023/07/14 00:31:34;;;;;;;8.00;6.40;;;;;;;32.33;45.91;99332.08;107961;1253;60295;-71
2023/07/14 00:34:01;;;;;;;9.60;6.10;;;;;;;32.12;46.45;99332.88;108104;1254;73750;-70
2023/07/14 00:36:28;;;;;;;11.20;6.10;;;;;;;32.09;46.59;99331.51;107875;1260;70401;-70
2023/07/14 00:38:55;;;;;;;9.30;6.40;;;;;;;32.63;45.35;99333.48;108072;1253;72787;-69
2023/07/14 00:41:23;;;;;;;8.30;6.10;;;;;;;32.42;45.75;99339.83;108133;1254;61810;-70
2023/07/14 00:43:52;;;;;;;8.40;6.30;;;;;;;32.37;45.88;99340.87;108088;1253;60318;-69
2023/07/14 00:46:29;;;;;;;8.80;6.30;;;;;;;32.25;45.91;99346.04;108015;1254;73892;-69
2023/07/14 00:49:01;;;;;;;7.70;6.50;;;;;;;32.08;46.18;99346.45;108091;1254;69256;-70
2023/07/14 00:51:31;;;;;;;10.80;6.80;;;;;;;31.93;46.48;99349.36;108097;1253;72412;-69
2023/07/14 00:53:58;;;;;;;7.30;6.30;;;;;;;31.85;46.71;99353.91;107996;1258;62980;-70
2023/07/14 00:56:33;;;;;;;8.70;7.10;;;;;;;31.79;46.75;99350.71;108107;1253;60296;-70
2023/07/14 00:59:00;;;;;;;10.60;6.30;;;;;;;31.94;46.45;99350.68;108143;1253;74194;-69
2023/07/14 01:01:27;;;;;;;11.10;6.80;;;;;;;31.61;46.86;99345.88;107959;1253;69624;-69
2023/07/14 01:03:55;;;;;;;10.90;7.30;;;;;;;30.91;48.41;99347.28;108030;1254;72537;-69
2023/07/14 01:06:36;;;;;;;8.00;6.90;;;;;;;30.64;49.31;99341.79;108750;1253;61389;-70
2023/07/14 01:09:05;;;;;;;11.60;7.40;;;;;;;30.63;49.46;99342.39;107951;1259;60469;-70
2023/07/14 01:11:42;;;;;;;10.00;7.10;;;;;;;30.74;49.70;99337.16;108051;1254;74292;-69
2023/07/14 01:14:17;;;;;;;10.30;6.90;;;;;;;30.90;49.28;99335.00;108097;1256;70360;-69
2023/07/14 01:16:47;;;;;;;10.10;6.40;;;;;;;31.06;48.90;99338.42;108002;1254;72532;-69
2023/07/14 01:19:41;;;;;;;10.40;7.50;;;;;;;31.14;48.72;99336.71;108052;1253;60952;-70
2023/07/14 01:22:12;;;;;;;11.60;7.40;;;;;;;31.34;48.40;99327.91;108141;1252;60254;-70
2023/07/14 01:24:57;;;;;;;9.50;7.40;;;;;;;31.28;48.35;99325.32;108068;1254;73736;-68
2023/07/14 01:27:24;;;;;;;8.90;7.30;;;;;;;31.37;48.21;99321.97;108009;1253;70309;-70
2023/07/14 01:29:52;;;;;;;10.20;7.50;;;;;;;31.55;48.01;99318.95;107980;1254;71680;-69
2023/07/14 01:32:19;;;;;;;9.10;7.10;;;;;;;31.38;48.51;99312.38;108190;1252;61891;-69
2023/07/14 01:34:46;;;;;;;9.10;7.10;;;;;;;31.47;48.36;99313.89;108155;1254;60858;-69
2023/07/14 01:37:15;;;;;;;10.10;7.50;;;;;;;31.67;48.20;99314.17;108068;1254;60300;-69
2023/07/14 01:39:41;;;;;;;10.70;7.50;;;;;;;31.99;47.54;99322.35;108191;1253;68833;-70
2023/07/14 01:42:08;;;;;;;11.20;7.40;;;;;;;32.22;46.41;99321.40;108015;1254;72415;-70
2023/07/14 01:44:34;;;;;;;10.20;7.60;;;;;;;31.99;46.82;99325.85;108072;1253;59146;-70
2023/07/14 01:47:02;;;;;;;9.80;7.80;;;;;;;31.78;47.04;99324.21;109027;1254;60475;-69
2023/07/14 01:49:35;;;;;;;11.90;9.40;;;;;;;31.79;47.17;99322.86;108375;1253;71778;-72
2023/07/14 01:52:02;;;;;;;9.30;7.90;;;;;;;32.03;47.03;99325.10;108726;1253;70008;-68
2023/07/14 01:54:33;;;;;;;9.60;8.00;;;;;;;32.11;46.78;99327.46;108095;1254;72733;-68
2023/07/14 01:57:01;;;;;;;12.40;8.40;;;;;;;31.84;47.38;99326.45;108492;1253;62004;-69
2023/07/14 01:59:31;;;;;;;13.00;9.00;;;;;;;31.66;47.82;99332.79;108011;1253;60421;-69
2023/07/14 02:01:59;;;;;;;13.20;9.70;;;;;;;31.54;47.67;99332.73;107897;1254;73792;-71
2023/07/14 02:04:28;;;;;;;13.50;10.40;;;;;;;31.60;47.94;99331.11;108149;1253;70221;-70
2023/07/14 02:06:58;;;;;;;11.50;9.30;;;;;;;31.41;47.95;99332.23;108127;1256;72962;-70
2023/07/14 02:09:28;;;;;;;11.80;9.90;;;;;;;31.47;47.83;99330.35;108015;1254;62150;-69
2023/07/14 02:11:59;;;;;;;9.50;8.20;;;;;;;31.76;47.31;99327.31;108086;1253;60174;-69
2023/07/14 02:14:27;;;;;;;11.40;8.80;;;;;;;31.88;46.87;99320.77;108032;1253;73595;-70
2023/07/14 02:16:57;;;;;;;12.40;9.70;;;;;;;31.92;46.72;99318.26;108018;1254;68924;-71
2023/07/14 02:19:24;;;;;;;12.00;9.20;;;;;;;31.94;46.75;99315.31;107864;1254;72479;-69
2023/07/14 02:21:54;;;;;;;15.40;11.30;;;;;;;31.65;47.38;99318.91;107971;1254;62322;-71
2023/07/14 02:24:22;;;;;;;15.70;10.20;;;;;;;31.61;47.81;99318.39;108052;1254;60396;-69
2023/07/14 02:27:01;;;;;;;15.80;9.90;;;;;;;31.53;48.19;99318.96;108564;1253;73789;-69
2023/07/14 02:29:28;;;;;;;15.90;10.60;;;;;;;31.78;47.43;99319.93;107988;1258;70064;-69
2023/07/14 02:31:54;;;;;;;16.30;12.00;;;;;;;31.77;47.68;99323.23;107966;1254;72680;-71
2023/07/14 02:34:22;;;;;;;23.00;15.30;;;;;;;32.09;46.49;99324.54;108068;1253;61762;-69
2023/07/14 02:37:00;;;;;;;25.90;18.00;;;;;;;31.44;47.85;99327.66;107848;1260;60613;-68
2023/07/14 02:39:37;;;;;;;22.30;18.60;;;;;;;31.25;48.26;99327.26;108135;1253;73757;-69
2023/07/14 02:42:03;;;;;;;35.10;26.10;;;;;;;31.23;48.45;99329.30;108100;1253;70204;-70
2023/07/14 02:44:37;;;;;;;33.60;28.10;;;;;;;31.30;48.13;99331.48;108054;1252;72624;-69
2023/07/14 02:47:16;;;;;;;25.60;22.00;;;;;;;31.26;48.16;99333.19;108100;1254;60948;-70
2023/07/14 02:49:42;;;;;;;23.10;19.30;;;;;;;31.28;47.95;99338.50;108019;1253;60466;-70
2023/07/14 02:52:09;;;;;;;17.10;13.10;;;;;;;30.77;49.04;99337.84;108148;1253;72952;-69
2023/07/14 02:54:39;;;;;;;19.30;13.50;;;;;;;30.76;49.32;99334.54;108084;1254;70365;-71
2023/07/14 02:57:05;;;;;;;17.00;13.50;;;;;;;30.89;49.12;99336.59;108102;1253;72601;-68
2023/07/14 02:59:34;;;;;;;16.00;11.80;;;;;;;30.92;49.30;99343.15;108125;1254;61685;-70
2023/07/14 03:02:02;;;;;;;17.60;13.70;;;;;;;30.85;49.41;99347.73;108118;1253;60645;-70
2023/07/14 03:04:30;;;;;;;24.60;13.70;;;;;;;30.76;49.74;99350.67;108333;1253;74441;-69
2023/07/14 03:06:56;;;;;;;18.00;14.60;;;;;;;30.89;49.62;99349.29;109096;1254;71459;-70
2023/07/14 03:09:23;;;;;;;19.50;12.90;;;;;;;30.89;49.60;99346.08;108031;1253;72994;-69
2023/07/14 03:11:50;;;;;;;14.80;11.50;;;;;;;30.89;49.72;99346.70;108048;1254;62124;-70
2023/07/14 03:14:16;;;;;;;18.10;13.60;;;;;;;30.92;49.62;99346.78;108147;1253;60222;-69
2023/07/14 03:16:44;;;;;;;18.20;13.80;;;;;;;30.97;49.69;99339.90;108001;1259;74499;-68
2023/07/14 03:19:11;;;;;;;14.60;10.80;;;;;;;31.06;49.56;99333.70;108108;1253;70760;-69
2023/07/14 03:21:38;;;;;;;19.90;14.30;;;;;;;31.23;49.05;99335.50;108127;1254;72459;-67
2023/07/14 03:24:05;;;;;;;17.30;13.20;;;;;;;31.40;48.85;99338.42;108307;1256;61647;-69
2023/07/14 03:26:32;;;;;;;17.00;13.60;;;;;;;31.50;48.30;99337.92;108084;1254;60313;-70
2023/07/14 03:28:59;;;;;;;18.00;14.90;;;;;;;31.54;48.53;99333.89;108082;1253;73545;-68
2023/07/14 03:31:28;;;;;;;19.10;13.60;;;;;;;31.76;48.16;99328.11;108191;1254;70092;-69
2023/07/14 03:33:55;;;;;;;19.80;15.10;;;;;;;31.91;47.75;99328.89;108040;1252;74359;-69
2023/07/14 03:36:25;;;;;;;18.20;15.20;;;;;;;31.56;48.55;99328.95;108123;1253;62003;-70
2023/07/14 03:39:23;;;;;;;20.30;14.10;;;;;;;31.50;48.74;99331.92;108060;1254;60590;-70
2023/07/14 03:41:51;;;;;;;19.60;14.50;;;;;;;31.85;47.95;99335.95;108244;1254;72982;-70
2023/07/14 03:44:18;;;;;;;18.60;14.50;;;;;;;32.02;47.83;99333.79;107982;1259;68840;-69
2023/07/14 03:46:45;;;;;;;16.30;13.10;;;;;;;32.07;47.55;99335.89;108198;1254;72615;-70
2023/07/14 03:49:13;;;;;;;16.90;14.60;;;;;;;32.16;47.00;99336.74;108026;1254;62146;-69
2023/07/14 03:51:40;;;;;;;17.00;14.00;;;;;;;32.03;47.38;99335.49;107992;1254;60363;-69
2023/07/14 03:54:09;;;;;;;18.50;15.50;;;;;;;32.32;46.77;99334.36;108059;1254;74363;-71
2023/07/14 03:56:35;;;;;;;17.40;15.10;;;;;;;32.41;46.58;99339.88;108033;1252;70418;-69
2023/07/14 03:59:02;;;;;;;18.50;14.10;;;;;;;32.33;46.75;99343.36;108143;1254;72632;-68
2023/07/14 04:01:29;;;;;;;20.90;15.90;;;;;;;32.28;46.76;99350.84;108119;1256;61613;-70
2023/07/14 04:03:56;;;;;;;20.30;14.60;;;;;;;32.27;47.19;99356.22;108035;1253;60311;-71
2023/07/14 04:06:28;;;;;;;18.40;14.70;;;;;;;32.14;47.17;99357.07;108125;1254;74288;-70
2023/07/14 04:08:58;;;;;;;21.90;15.40;;;;;;;32.16;47.56;99360.91;107989;1254;70170;-71
2023/07/14 04:11:25;;;;;;;14.10;12.20;;;;;;;32.30;47.29;99363.78;108065;1254;72639;-71
2023/07/14 04:13:52;;;;;;;18.50;13.50;;;;;;;32.38;46.95;99372.90;108037;1254;61985;-70
2023/07/14 04:16:23;;;;;;;16.00;14.20;;;;;;;32.12;47.54;99366.36;107971;1253;60639;-70
2023/07/14 04:18:49;;;;;;;;;;;;;;;32.02;47.65;99367.04;108149;1253;72296;-70
2023/07/14 04:21:16;;;;;;;21.60;14.70;;;;;;;31.61;48.19;99365.32;108093;1253;60332;-71
2023/07/14 04:23:43;;;;;;;15.70;14.10;;;;;;;31.43;48.80;99366.79;108042;1253;71527;-69
2023/07/14 04:26:13;;;;;;;16.80;13.70;;;;;;;31.52;48.56;99361.98;108004;1254;61854;-68
2023/07/14 04:28:40;;;;;;;17.70;13.40;;;;;;;31.90;47.99;99359.60;108057;1253;60334;-70
2023/07/14 04:31:07;;;;;;;16.20;14.50;;;;;;;31.93;47.77;99358.77;107980;1254;73830;-69
2023/07/14 04:33:33;;;;;;;15.40;13.80;;;;;;;31.84;47.78;99358.25;108033;1254;71126;-69
2023/07/14 04:36:00;;;;;;;17.60;15.40;;;;;;;31.66;48.14;99354.59;108162;1254;72445;-70
2023/07/14 04:38:29;;;;;;;17.30;13.90;;;;;;;31.89;47.66;99358.11;108072;1256;61932;-69
2023/07/14 04:40:56;;;;;;;16.80;14.50;;;;;;;32.02;47.04;99360.69;108079;1254;60355;-70
2023/07/14 04:43:22;;;;;;;17.50;13.00;;;;;;;32.00;47.09;99368.22;108184;1254;60319;-70
2023/07/14 04:45:49;;;;;;;19.50;15.20;;;;;;;32.12;46.36;99372.20;108110;1254;70147;-71
2023/07/14 04:48:17;;;;;;;18.40;14.30;;;;;;;31.85;46.93;99373.86;108228;1254;72802;-70
2023/07/14 04:50:45;;;;;;;14.90;12.70;;;;;;;31.99;46.47;99375.80;108071;1254;60426;-69
2023/07/14 04:53:13;;;;;;;20.90;14.10;;;;;;;32.04;46.48;99385.13;108146;1254;59574;-70
2023/07/14 04:55:44;;;;;;;16.70;12.40;;;;;;;32.04;46.72;99390.76;108161;1256;74338;-70
2023/07/14 04:58:12;;;;;;;15.80;14.00;;;;;;;31.89;46.95;99397.60;108057;1254;70375;-71
2023/07/14 05:00:39;;;;;;;18.30;13.70;;;;;;;31.86;46.97;99409.42;108069;1253;72639;-70
2023/07/14 05:03:06;;;;;;;17.70;13.40;;;;;;;31.38;47.82;99417.11;107968;1254;61782;-71
2023/07/14 05:05:34;;;;;;;17.10;13.70;;;;;;;31.48;47.37;99420.67;107741;1253;60329;-71
2023/07/14 05:08:01;;;;;;;15.30;12.40;;;;;;;31.67;47.15;99431.52;107978;1254;73814;-71
2023/07/14 05:10:28;;;;;;;13.50;10.80;;;;;;;31.32;47.79;99436.73;107924;1258;70783;-70
2023/07/14 05:12:56;;;;;;;17.00;13.90;;;;;;;31.04;48.36;99446.90;107996;1254;72279;-70
2023/07/14 05:15:24;;;;;;;14.70;12.80;;;;;;;31.22;48.34;99451.94;108057;1254;61637;-70
2023/07/14 05:17:51;;;;;;;16.90;14.70;;;;;;;31.31;47.71;99458.40;108077;1256;60046;-70
2023/07/14 05:20:18;;;;;;;18.50;13.60;;;;;;;30.85;49.09;99467.21;108090;1254;73656;-69
2023/07/14 05:22:51;;;;;;;14.90;13.20;;;;;;;31.04;48.94;99472.13;107877;1259;70352;-70
2023/07/14 05:25:18;;;;;;;14.80;12.20;;;;;;;31.30;48.50;99475.39;108008;1253;72997;-70
2023/07/14 05:27:46;;;;;;;13.60;10.70;;;;;;;31.27;48.18;99479.27;108027;1254;61663;-69
2023/07/14 05:30:14;;;;;;;14.80;12.10;;;;;;;31.26;47.68;99484.84;108036;1254;61090;-69
2023/07/14 05:32:42;;;;;;;17.10;11.60;;;;;;;31.34;47.10;99488.83;108018;1254;73027;-69
2023/07/14 05:37:50;;;;;;;17.70;12.40;;;;;;;28.41;53.45;99501.84;104757;1290;599770;-72
2023/07/14 05:40:17;;;;;;;15.10;10.70;;;;;;;29.61;50.53;99505.48;107288;1264;59299;-69
2023/07/14 05:42:44;;;;;;;10.80;9.50;;;;;;;29.92;49.22;99513.27;107313;1263;60076;-72
2023/07/14 05:45:11;;;;;;;12.60;10.40;;;;;;;30.05;48.26;99526.02;107246;1263;72165;-69
2023/07/14 05:47:38;;;;;;;13.70;9.80;;;;;;;29.93;48.58;99534.23;107245;1264;70587;-71
2023/07/14 05:50:08;;;;;;;20.30;10.00;;;;;;;29.80;48.44;99542.99;107346;1264;230193;-71
2023/07/14 05:52:35;;;;;;;20.00;11.40;;;;;;;29.82;48.51;99549.98;107344;1264;61669;-69
2023/07/14 05:55:06;;;;;;;16.50;10.20;;;;;;;29.59;49.25;99562.11;107361;1264;58780;-70
2023/07/14 05:57:35;;;;;;;13.40;9.10;;;;;;;29.50;49.48;99570.90;107289;1263;72030;-70
2023/07/14 06:00:16;;;;;;;15.70;9.70;;;;;;;29.24;50.06;99571.04;107293;1267;70094;-71
2023/07/14 06:02:44;;;;;;;13.60;9.00;;;;;;;29.15;50.04;99558.18;107286;1263;72424;-71
2023/07/14 06:05:11;;;;;;;17.40;8.60;;;;;;;29.09;49.91;99548.66;107716;1260;60502;-69
2023/07/14 06:07:38;;;;;;;14.60;8.50;;;;;;;28.85;50.36;99547.91;107545;1260;60117;-72
2023/07/14 06:10:05;;;;;;;17.90;9.10;;;;;;;28.74;50.38;99544.45;107505;1262;72936;-72
2023/07/14 06:12:33;;;;;;;14.20;9.90;;;;;;;28.64;50.77;99539.00;107508;1260;70239;-71
2023/07/14 06:14:59;;;;;;;18.70;9.70;;;;;;;28.75;50.70;99530.36;107482;1261;72165;-70
2023/07/14 06:17:26;;;;;;;12.70;9.90;;;;;;;28.67;50.86;99533.51;107469;1264;61959;-70
2023/07/14 06:19:53;;;;;;;11.00;8.10;;;;;;;28.63;51.21;99537.62;107739;1263;60333;-71
2023/07/14 06:22:21;;;;;;;14.60;8.80;;;;;;;28.51;50.94;99533.40;107660;1260;59574;-70
2023/07/14 06:24:48;;;;;;;13.10;8.00;;;;;;;28.38;51.06;99532.79;107392;1261;70116;-71
2023/07/14 06:27:15;;;;;;;11.70;8.30;;;;;;;28.78;49.93;99537.09;107402;1260;73124;-70
2023/07/14 06:29:43;;;;;;;14.70;9.00;;;;;;;29.02;49.07;99542.57;107445;1260;61767;-69
2023/07/14 06:32:10;;;;;;;9.50;7.30;;;;;;;29.11;49.01;99544.20;107395;1262;59060;-70
2023/07/14 06:34:37;;;;;;;10.50;7.70;;;;;;;29.18;48.69;99541.77;107344;1261;72866;-71
2023/07/14 06:37:03;;;;;;;14.20;8.70;;;;;;;29.27;48.47;99540.11;107338;1266;59904;-70
2023/07/14 06:39:31;;;;;;;10.10;7.50;;;;;;;29.22;48.63;99538.69;107372;1262;72662;-70
2023/07/14 06:41:57;;;;;;;11.50;8.20;;;;;;;29.30;48.47;99539.70;107344;1265;62452;-71
2023/07/14 06:44:25;;;;;;;9.20;7.60;;;;;;;29.29;48.32;99542.39;107317;1261;60175;-69
2023/07/14 06:46:53;;;;;;;15.20;8.10;;;;;;;29.18;48.71;99546.31;107377;1261;72841;-72
2023/07/14 06:49:20;;;;;;;13.70;8.70;;;;;;;29.09;48.78;99547.05;107349;1265;70304;-70
2023/07/14 06:51:50;;;;;;;9.00;6.20;;;;;;;29.33;48.69;99550.15;107403;1263;72566;-71
2023/07/14 06:54:17;;;;;;;14.10;8.50;;;;;;;28.99;49.42;99544.98;107448;1260;61792;-70
2023/07/14 06:56:44;;;;;;;13.50;8.30;;;;;;;28.69;50.25;99544.74;108750;1261;60559;-70
2023/07/14 06:59:11;;;;;;;11.20;8.70;;;;;;;28.78;50.22;99547.40;108823;1260;73094;-72
2023/07/14 07:01:37;;;;;;;11.40;9.30;;;;;;;28.76;50.09;99557.54;108791;1263;71367;-71
2023/07/14 07:04:04;;;;;;;15.80;9.40;;;;;;;29.05;49.45;99560.30;108794;1261;72238;-71
2023/07/14 07:06:31;;;;;;;12.40;8.80;;;;;;;29.30;48.97;99562.88;108665;1261;61049;-71
2023/07/14 07:08:57;;;;;;;13.60;8.70;;;;;;;29.34;48.69;99569.56;108654;1261;59382;-69
2023/07/14 07:11:24;;;;;;;16.50;9.30;;;;;;;29.46;48.37;99574.87;107320;1261;72710;-70
2023/07/14 07:13:53;;;;;;;12.90;9.80;;;;;;;29.62;48.13;99572.23;107355;1261;69712;-69
2023/07/14 07:16:20;;;;;;;11.80;9.50;;;;;;;29.47;48.58;99576.88;107410;1265;72430;-71
2023/07/14 07:18:50;;;;;;;13.60;9.80;;;;;;;29.65;48.21;99570.77;107357;1261;61857;-70
2023/07/14 07:21:16;;;;;;;12.10;9.90;;;;;;;29.66;48.16;99569.16;107309;1260;59619;-71
2023/07/14 07:23:43;;;;;;;11.60;9.30;;;;;;;29.66;47.99;99571.11;108711;1261;72476;-70
2023/07/14 07:26:10;;;;;;;12.10;9.50;;;;;;;29.64;47.76;99578.64;108271;1261;70311;-68
2023/07/14 07:28:38;;;;;;;13.50;9.50;;;;;;;29.68;47.99;99586.33;107328;1265;73104;-71
2023/07/14 07:31:09;;;;;;;15.50;10.00;;;;;;;29.83;47.76;99596.54;107328;1261;62501;-71
2023/07/14 07:33:36;;;;;;;13.50;10.00;;;;;;;29.82;47.69;99606.77;107390;1261;60133;-69
2023/07/14 07:36:14;;;;;;;16.00;10.70;;;;;;;29.77;47.88;99617.03;107375;1261;72823;-71
2023/07/14 07:38:49;;;;;;;12.60;10.40;;;;;;;29.88;47.53;99621.98;107345;1266;70120;-70
2023/07/14 07:41:17;;;;;;;11.70;9.90;;;;;;;29.94;47.31;99622.80;108699;1260;72957;-71
2023/07/14 07:43:44;;;;;;;11.40;10.00;;;;;;;29.88;47.62;99625.02;108647;1266;61019;-72
2023/07/14 07:46:10;;;;;;;16.30;11.50;;;;;;;30.00;47.44;99623.14;108659;1261;60103;-71
2023/07/14 07:48:40;;;;;;;13.30;10.50;;;;;;;30.04;47.33;99628.98;109070;1254;71867;-71
2023/07/14 07:51:07;;;;;;;17.60;10.40;;;;;;;29.84;47.78;99636.15;109100;1254;70372;-72
2023/07/14 07:53:34;;;;;;;15.80;10.60;;;;;;;30.02;47.59;99645.73;109152;1254;72772;-71
2023/07/14 07:56:01;;;;;;;14.40;10.60;;;;;;;30.22;47.34;99650.65;109176;1254;60744;-71
2023/07/14 07:58:28;;;;;;;16.60;10.80;;;;;;;30.42;47.11;99654.97;109126;1254;59997;-72
2023/07/14 08:00:57;;;;;;;15.00;10.40;;;;;;;30.49;46.91;99657.45;109167;1254;72900;-72
2023/07/14 08:03:25;;;;;;;12.80;9.70;;;;;;;30.49;47.00;99659.25;109144;1254;68339;-71
2023/07/14 08:05:56;;;;;;;19.60;11.10;;;;;;;30.79;46.40;99666.42;109158;1254;72660;-70
2023/07/14 08:08:23;;;;;;;14.30;11.10;;;;;;;30.95;46.06;99669.86;108975;1254;60417;-70
2023/07/14 08:10:50;;;;;;;17.90;10.50;;;;;;;30.93;46.44;99674.66;107959;1258;59698;-69
2023/07/14 08:13:17;;;;;;;13.70;10.70;;;;;;;31.10;46.33;99676.76;107868;1254;73178;-70
2023/07/14 08:15:44;;;;;;;17.00;11.00;;;;;;;31.16;46.62;99673.23;107937;1254;68836;-70
2023/07/14 08:18:11;;;;;;;14.70;10.00;;;;;;;31.32;46.38;99672.77;109143;1254;72408;-71
2023/07/14 08:20:38;;;;;;;14.20;10.30;;;;;;;31.52;46.07;99673.61;109126;1254;62546;-72
2023/07/14 08:23:05;;;;;;;15.90;9.80;;;;;;;31.32;46.42;99675.65;109104;1254;60020;-72
2023/07/14 08:25:32;;;;;;;13.80;10.80;;;;;;;31.51;46.33;99679.92;109003;1254;72872;-70
2023/07/14 08:27:59;;;;;;;19.80;10.30;;;;;;;31.69;46.25;99676.23;109153;1254;69360;-71
2023/07/14 08:30:26;;;;;;;13.70;10.00;;;;;;;31.91;46.08;99672.54;108985;1256;72673;-71
2023/07/14 08:32:52;;;;;;;14.30;10.30;;;;;;;32.21;45.95;99668.50;109108;1254;60642;-70
2023/07/14 08:35:19;;;;;;;13.20;10.50;;;;;;;32.09;46.51;99665.76;109151;1254;57271;-71
2023/07/14 08:37:46;;;;;;;16.40;10.10;;;;;;;32.12;46.68;99664.48;109147;1254;72917;-71
2023/07/14 08:40:16;;;;;;;13.30;9.40;;;;;;;32.33;46.57;99664.86;109174;1254;70180;-69
2023/07/14 08:43:18;;;;;;;10.90;8.40;;;;;;;32.51;46.04;99662.89;109036;1254;71787;-71
2023/07/14 08:45:54;;;;;;;11.70;9.10;;;;;;;32.72;45.51;99663.23;109024;1254;57407;-72
2023/07/14 08:48:21;;;;;;;12.40;8.70;;;;;;;33.02;45.18;99662.68;109041;1257;58957;-72
2023/07/14 08:50:50;;;;;;;8.90;7.70;;;;;;;33.36;44.92;99665.02;109165;1259;64264;-71
2023/07/14 08:53:22;;;;;;;11.90;8.50;;;;;;;33.80;44.35;99664.25;109137;1254;61632;-72
2023/07/14 08:55:49;;;;;;;11.20;7.80;;;;;;;34.24;43.59;99667.36;108945;1254;64240;-71
2023/07/14 08:58:19;;;;;;;12.90;7.90;;;;;;;34.71;42.37;99666.02;109098;1256;58196;-71
2023/07/14 09:00:49;;;;;;;11.00;7.50;;;;;;;34.95;40.96;99665.46;108766;1257;57453;-71
2023/07/14 09:03:28;;;;;;;11.00;7.10;;;;;;;35.52;39.89;99669.17;107828;1260;64166;-70
2023/07/14 09:05:58;;;;;;;8.30;6.40;;;;;;;35.76;39.17;99666.38;107735;1257;60465;-70
2023/07/14 09:08:26;;;;;;;12.10;7.20;;;;;;;35.95;37.76;99666.13;107668;1257;64010;-69
2023/07/14 09:10:56;;;;;;;10.30;6.90;;;;;;;35.89;37.66;99667.27;109001;1257;57685;-72
2023/07/14 09:13:38;;;;;;;11.60;6.60;;;;;;;35.67;37.67;99668.95;109072;1257;57505;-73
2023/07/14 09:16:05;;;;;;;9.20;6.40;;;;;;;35.74;37.33;99667.09;109059;1255;73013;-73
2023/07/14 09:19:04;;;;;;;9.80;6.60;;;;;;;35.52;37.34;99669.71;109076;1257;60298;-72
2023/07/14 09:21:37;;;;;;;9.20;6.00;;;;;;;35.59;37.55;99666.52;109045;1256;64771;-71
2023/07/14 09:24:03;;;;;;;14.90;6.70;;;;;;;35.78;37.05;99662.21;108877;1257;57310;-69
2023/07/14 09:26:31;;;;;;;11.90;6.20;;;;;;;36.09;36.65;99662.63;109069;1256;57530;-72
2023/07/14 09:28:58;;;;;;;9.10;5.80;;;;;;;36.79;35.33;99660.83;109089;1256;63438;-72
2023/07/14 09:31:37;;;;;;;9.10;6.30;;;;;;;37.21;34.87;99658.46;108915;1256;61749;-71
2023/07/14 09:34:20;;;;;;;10.70;5.90;;;;;;;37.71;33.98;99653.63;109093;1255;63458;-71
2023/07/14 09:36:47;;;;;;;13.60;5.30;;;;;;;37.99;33.38;99648.54;108869;1259;57374;-73
2023/07/14 09:40:53;;;;;;;11.40;6.30;;;;;;;35.67;37.46;99646.81;106130;1288;603419;-95
2023/07/14 09:43:46;;;;;;;8.70;5.70;;;;;;;37.62;33.63;99642.03;107003;1267;80505;-73
2023/07/14 09:46:14;;;;;;;10.10;5.80;;;;;;;37.94;33.33;99645.33;106990;1267;59108;-71
2023/07/14 09:48:43;;;;;;;11.50;5.50;;;;;;;38.54;32.38;99650.82;106932;1267;63323;-73
2023/07/14 09:51:18;;;;;;;5.70;4.60;;;;;;;38.80;31.07;99651.15;106854;1273;61876;-70
2023/07/14 09:54:02;;;;;;;7.70;5.00;;;;;;;39.05;29.63;99650.91;106898;1265;257894;-71
2023/07/14 09:56:31;;;;;;;9.00;5.10;;;;;;;39.21;29.45;99652.70;107030;1265;59344;-71
2023/07/14 09:59:02;;;;;;;8.70;5.10;;;;;;;39.43;29.05;99650.55;107209;1267;59302;-71
2023/07/14 10:01:30;;;;;;;9.00;4.30;;;;;;;39.65;28.56;99648.81;107417;1260;63619;-72
2023/07/14 10:03:59;;;;;;;8.20;5.10;;;;;;;40.28;28.03;99649.06;107318;1261;60479;-71
2023/07/14 10:06:28;;;;;;;7.70;4.80;;;;;;;40.58;27.36;99650.63;107319;1261;63869;-70
2023/07/14 10:08:56;;;;;;;10.30;5.10;;;;;;;40.46;27.13;99655.79;107388;1263;59583;-70
2023/07/14 10:11:27;;;;;;;10.30;4.90;;;;;;;40.44;27.42;99661.52;107368;1260;59143;-70
2023/07/14 10:14:06;;;;;;;6.70;5.00;;;;;;;40.70;27.43;99666.50;107339;1265;64584;-71
2023/07/14 10:16:41;;;;;;;7.10;4.50;;;;;;;40.91;26.91;99666.90;107397;1265;61779;-70
2023/07/14 10:19:13;;;;;;;5.90;4.90;;;;;;;41.19;27.05;99667.38;107324;1260;62911;-69
2023/07/14 10:21:53;;;;;;;9.20;5.00;;;;;;;41.33;26.46;99669.59;107956;1254;59542;-69
2023/07/14 10:24:21;;;;;;;7.70;4.70;;;;;;;41.26;26.33;99673.22;107868;1254;59526;-70
2023/07/14 10:26:53;;;;;;;8.30;4.80;;;;;;;41.51;26.20;99676.62;107847;1254;64261;-71
2023/07/14 10:29:20;;;;;;;7.50;4.90;;;;;;;41.74;25.94;99672.59;107724;1254;60201;-70
2023/07/14 10:32:04;;;;;;;12.70;4.70;;;;;;;41.78;26.04;99670.07;107717;1254;62945;-71
2023/07/14 10:34:49;;;;;;;7.50;5.10;;;;;;;41.91;25.48;99670.76;107930;1254;59024;-70
2023/07/14 10:37:27;;;;;;;6.30;4.50;;;;;;;42.05;25.72;99669.39;107817;1254;59606;-71
2023/07/14 10:40:13;;;;;;;6.40;4.20;;;;;;;42.02;25.22;99671.71;107928;1254;64407;-72
2023/07/14 10:42:44;;;;;;;7.30;4.60;;;;;;;41.53;25.31;99667.06;107959;1257;61480;-71
2023/07/14 10:45:13;;;;;;;8.60;4.30;;;;;;;41.45;25.62;99663.51;107979;1254;63851;-71
2023/07/14 10:48:03;;;;;;;9.20;4.20;;;;;;;41.75;25.47;99666.40;107954;1254;59410;-72
2023/07/14 10:50:39;;;;;;;5.90;3.50;;;;;;;41.66;25.03;99663.52;107912;1256;59518;-73
2023/07/14 10:53:12;;;;;;;7.90;3.80;;;;;;;41.65;25.11;99665.79;107943;1255;64482;-70
2023/07/14 10:55:39;;;;;;;7.60;3.70;;;;;;;41.45;24.57;99666.48;107735;1257;61719;-71
2023/07/14 10:58:28;;;;;;;6.80;3.60;;;;;;;41.35;24.68;99665.45;107686;1257;63076;-73
2023/07/14 11:00:57;;;;;;;6.00;3.70;;;;;;;41.81;24.00;99665.86;107762;1257;59017;-71
2023/07/14 11:03:27;;;;;;;8.50;3.60;;;;;;;42.19;24.10;99671.98;107903;1256;59641;-71
2023/07/14 11:06:13;;;;;;;8.90;3.10;;;;;;;42.24;23.62;99675.26;107872;1256;72493;-72
2023/07/14 11:08:40;;;;;;;4.80;3.30;;;;;;;42.35;23.16;99678.35;107877;1256;61777;-72
2023/07/14 11:11:22;;;;;;;7.90;3.40;;;;;;;42.28;22.78;99678.58;107597;1255;59511;-72
2023/07/14 11:14:36;;;;;;;5.60;3.50;;;;;;;42.34;23.14;99674.55;107863;1255;59632;-70
2023/07/14 11:17:19;;;;;;;5.20;3.50;;;;;;;42.54;23.37;99677.52;107363;1262;59512;-71
2023/07/14 11:20:18;;;;;;;5.50;2.90;;;;;;;42.67;22.51;99672.29;107689;1255;64274;-69
2023/07/14 11:22:57;;;;;;;7.80;3.70;;;;;;;42.88;22.57;99677.63;107716;1257;61782;-71
2023/07/14 11:25:30;;;;;;;4.20;2.90;;;;;;;42.80;21.70;99679.02;107868;1256;63874;-71
2023/07/14 11:28:02;;;;;;;9.20;3.40;;;;;;;42.49;21.98;99673.21;107887;1256;59525;-71
2023/07/14 11:30:31;;;;;;;5.70;2.90;;;;;;;42.27;22.21;99669.05;107918;1257;59496;-71
2023/07/14 11:33:05;;;;;;;6.20;3.20;;;;;;;41.91;22.28;99667.86;107718;1256;64420;-71
2023/07/14 11:36:01;;;;;;;8.40;3.00;;;;;;;41.98;22.75;99672.16;107963;1255;61659;-70